Time;durP1;ratioP1;P1;durP2;ratioP2;P2;SDS_P1;SDS_P2;PMS_P1;PMS_P2;Temp;Humidity;BMP_temperature;BMP_pressure;BME280_temperature;BME280_humidity;BME280_pressure;Samples;Min_cycle;Max_cycle;Signal;HPM_P1;HPM_P2
2023/11/01 00:08:11;;;;;;;4.7;2.2;;;;;;;10.65;85.76;;;;;
2023/11/01 00:18:10;;;;;;;4.7;2.2;;;;;;;10.74;85.89;;;;;
2023/11/01 00:29:10;;;;;;;6.9;3.4;;;;;;;10.64;85.94;;;;;
2023/11/01 00:39:10;;;;;;;6.9;3.4;;;;;;;10.65;86.11;;;;;
2023/11/01 00:50:10;;;;;;;6.9;3.4;;;;;;;10.64;85.53;;;;;
2023/11/01 01:01:10;;;;;;;6.9;3.3;;;;;;;10.74;85.1;;;;;
2023/11/01 01:11:11;;;;;;;6.9;3.3;;;;;;;10.77;84.38;;;;;
2023/11/01 01:22:10;;;;;;;4.8;2.6;;;;;;;10.74;84.17;;;;;
2023/11/01 01:32:10;;;;;;;4.8;2.6;;;;;;;10.71;84.47;;;;;
2023/11/01 01:42:10;;;;;;;4.8;2.6;;;;;;;10.77;84.14;;;;;
2023/11/01 01:53:11;;;;;;;4.8;2.6;;;;;;;10.71;84.17;;;;;
2023/11/01 02:04:10;;;;;;;4.8;2.6;;;;;;;10.74;84.08;;;;;
2023/11/01 02:14:10;;;;;;;4.8;2.6;;;;;;;10.74;83.79;;;;;
2023/11/01 02:25:10;;;;;;;3.2;1.8;;;;;;;10.75;83.83;;;;;
2023/11/01 02:35:10;;;;;;;3.2;1.8;;;;;;;10.77;83.21;;;;;
2023/11/01 02:45:11;;;;;;;3.2;1.8;;;;;;;10.78;83.14;;;;;
2023/11/01 02:55:11;;;;;;;4.8;2.2;;;;;;;10.76;83.18;;;;;
2023/11/01 03:06:10;;;;;;;4.8;2.2;;;;;;;10.81;82.92;;;;;
2023/11/01 03:16:10;;;;;;;4.8;2.2;;;;;;;10.74;82.82;;;;;
2023/11/01 03:26:11;;;;;;;2.8;1.5;;;;;;;10.81;82.56;;;;;
2023/11/01 03:37:10;;;;;;;2.8;1.5;;;;;;;10.69;82.21;;;;;
2023/11/01 03:47:11;;;;;;;2.8;1.5;;;;;;;10.74;82.36;;;;;
2023/11/01 03:58:10;;;;;;;5.3;3.5;;;;;;;10.77;82.28;;;;;
2023/11/01 04:08:11;;;;;;;5.3;3.5;;;;;;;10.7;82.16;;;;;
2023/11/01 04:19:11;;;;;;;5.3;3.5;;;;;;;10.68;82.24;;;;;
2023/11/01 04:30:11;;;;;;;5.9;3.2;;;;;;;10.55;82.87;;;;;
2023/11/01 04:40:11;;;;;;;5.9;3.2;;;;;;;10.46;83.3;;;;;
2023/11/01 04:50:11;;;;;;;5.9;3.2;;;;;;;10.47;83.13;;;;;
2023/11/01 05:01:13;;;;;;;2.7;1.3;;;;;;;10.55;83.2;;;;;
2023/11/01 05:12:11;;;;;;;2.7;1.3;;;;;;;10.68;82.7;;;;;
2023/11/01 05:23:11;;;;;;;2.6;1.3;;;;;;;10.56;82.81;;;;;
2023/11/01 05:33:11;;;;;;;2.6;1.3;;;;;;;10.58;82.85;;;;;
2023/11/01 05:44:11;;;;;;;2.6;1.3;;;;;;;10.45;83.78;;;;;
2023/11/01 05:54:11;;;;;;;2.9;1.2;;;;;;;10.38;84.33;;;;;
2023/11/01 06:04:11;;;;;;;2.9;1.2;;;;;;;10.65;83.38;;;;;
2023/11/01 06:15:11;;;;;;;2.9;1.2;;;;;;;10.86;83.18;;;;;
2023/11/01 06:26:11;;;;;;;4.4;1.7;;;;;;;10.99;83.02;;;;;
2023/11/01 06:36:11;;;;;;;4.4;1.7;;;;;;;11.15;82.06;;;;;
2023/11/01 06:47:11;;;;;;;4.4;1.7;;;;;;;11.14;82.01;;;;;
2023/11/01 06:57:11;;;;;;;3.4;1.4;;;;;;;11.15;81.77;;;;;
2023/11/01 07:08:11;;;;;;;3.4;1.4;;;;;;;11.08;80.86;;;;;
2023/11/01 07:19:11;;;;;;;3.4;1.4;;;;;;;11.12;80.33;;;;;
2023/11/01 07:29:10;;;;;;;6;1.7;;;;;;;11.29;79.21;;;;;
2023/11/01 07:39:11;;;;;;;6;1.7;;;;;;;11.36;78.82;;;;;
2023/11/01 07:50:13;;;;;;;6;1.7;;;;;;;11.6;78.24;;;;;
2023/11/01 07:59:06;;;;;;;3.4;1.8;;;;;;;11.79;76.31;;;;;
2023/11/01 08:09:06;;;;;;;3.4;1.8;;;;;;;11.97;75.44;;;;;
2023/11/01 08:19:06;;;;;;;3.4;1.8;;;;;;;12.11;75.09;;;;;
2023/11/01 08:29:06;;;;;;;3.5;1.6;;;;;;;12.31;72.55;;;;;
2023/11/01 08:39:06;;;;;;;3.5;1.6;;;;;;;12.5;70.45;;;;;
2023/11/01 08:49:06;;;;;;;3.5;1.6;;;;;;;12.83;70.31;;;;;
2023/11/01 09:00:06;;;;;;;3.3;1.7;;;;;;;13.12;69.09;;;;;
2023/11/01 09:10:07;;;;;;;3.3;1.7;;;;;;;13.37;67.03;;;;;
2023/11/01 09:21:07;;;;;;;3.3;1.7;;;;;;;13.42;63.67;;;;;
2023/11/01 09:31:06;;;;;;;3.4;1.6;;;;;;;13.5;63.9;;;;;
2023/11/01 09:42:06;;;;;;;3.4;1.6;;;;;;;13.89;64.18;;;;;
2023/11/01 09:52:06;;;;;;;2.9;1.5;;;;;;;14.53;61.52;;;;;
2023/11/01 10:03:06;;;;;;;2.9;1.5;;;;;;;14.98;60.23;;;;;
2023/11/01 10:14:07;;;;;;;2.9;1.5;;;;;;;14.94;59.13;;;;;
2023/11/01 10:24:07;;;;;;;4.7;1.6;;;;;;;15.05;60.45;;;;;
2023/11/01 10:34:06;;;;;;;4.7;1.6;;;;;;;14.92;61.94;;;;;
2023/11/01 10:45:06;;;;;;;4.7;1.6;;;;;;;14.86;60.82;;;;;
2023/11/01 10:55:06;;;;;;;2.6;1.1;;;;;;;14.88;61.14;;;;;
2023/11/01 11:05:06;;;;;;;2.6;1.1;;;;;;;14.95;61.01;;;;;
2023/11/01 11:16:09;;;;;;;2.6;1.1;;;;;;;15.13;60.03;;;;;
2023/11/01 11:27:06;;;;;;;3.2;1.3;;;;;;;15.85;59.48;;;;;
2023/11/01 11:38:06;;;;;;;3.2;1.3;;;;;;;15.69;59.7;;;;;
2023/11/01 11:48:06;;;;;;;3.2;1.3;;;;;;;15.87;59.41;;;;;
2023/11/01 11:59:06;;;;;;;2.4;1.4;;;;;;;15.31;60.34;;;;;
2023/11/01 12:09:07;;;;;;;2.4;1.4;;;;;;;15.65;60.61;;;;;
2023/11/01 12:19:06;;;;;;;2.4;1.4;;;;;;;15.42;60.28;;;;;
2023/11/01 12:29:06;;;;;;;2.8;1.2;;;;;;;15.29;60.56;;;;;
2023/11/01 12:40:10;;;;;;;2.8;1.2;;;;;;;15.21;61.33;;;;;
2023/11/01 12:51:08;;;;;;;2.6;1.2;;;;;;;15.13;62.47;;;;;
2023/11/01 13:01:07;;;;;;;2.6;1.2;;;;;;;15.81;60.52;;;;;
2023/11/01 13:12:07;;;;;;;2.6;1.2;;;;;;;15.95;59.26;;;;;
2023/11/01 13:22:06;;;;;;;2.8;1.4;;;;;;;15.82;58.49;;;;;
2023/11/01 13:33:06;;;;;;;2.8;1.4;;;;;;;16.05;57.57;;;;;
2023/11/01 13:44:07;;;;;;;2.8;1.4;;;;;;;15.24;58.24;;;;;
2023/11/01 13:55:07;;;;;;;2.2;1;;;;;;;14.78;59.6;;;;;
2023/11/01 14:05:07;;;;;;;2.2;1;;;;;;;14.38;61.2;;;;;
2023/11/01 14:16:06;;;;;;;2.2;1;;;;;;;14.28;62.79;;;;;
2023/11/01 14:26:07;;;;;;;2.9;1.2;;;;;;;14.17;63.8;;;;;
2023/11/01 14:37:07;;;;;;;2.9;1.2;;;;;;;13.94;62.43;;;;;
2023/11/01 14:47:07;;;;;;;2.9;1.2;;;;;;;13.55;62.3;;;;;
2023/11/01 14:58:06;;;;;;;3;0.9;;;;;;;13.03;64.03;;;;;
2023/11/01 15:08:07;;;;;;;3;0.9;;;;;;;12.54;64.85;;;;;
2023/11/01 15:19:07;;;;;;;3;0.9;;;;;;;11.96;66.64;;;;;
2023/11/01 15:30:08;;;;;;;1.5;0.7;;;;;;;11.3;67.71;;;;;
2023/11/01 15:40:07;;;;;;;1.5;0.7;;;;;;;10.75;69.26;;;;;
2023/11/01 15:50:06;;;;;;;1.5;0.7;;;;;;;10.46;72.56;;;;;
2023/11/01 16:01:07;;;;;;;2.6;1.1;;;;;;;10.06;76.71;;;;;
2023/11/01 16:11:08;;;;;;;2.6;1.1;;;;;;;9.85;76;;;;;
2023/11/01 16:22:07;;;;;;;6.2;2.4;;;;;;;9.58;76.35;;;;;
2023/11/01 16:32:07;;;;;;;6.2;2.4;;;;;;;9.28;76.44;;;;;
2023/11/01 16:43:07;;;;;;;6.2;2.4;;;;;;;8.99;77.47;;;;;
2023/11/01 16:53:07;;;;;;;5.4;2.9;;;;;;;8.8;78.47;;;;;
2023/11/01 17:04:07;;;;;;;5.4;2.9;;;;;;;8.61;80.02;;;;;
2023/11/01 17:15:07;;;;;;;5.4;2.9;;;;;;;8.42;79.6;;;;;
2023/11/01 17:25:07;;;;;;;13.2;5.4;;;;;;;8.11;82.36;;;;;
2023/11/01 17:36:06;;;;;;;13.2;5.4;;;;;;;7.92;82.33;;;;;
2023/11/01 17:47:07;;;;;;;13.2;5.4;;;;;;;7.6;83.55;;;;;
2023/11/01 17:58:06;;;;;;;7.4;3.7;;;;;;;7.73;83.33;;;;;
2023/11/01 18:08:07;;;;;;;7.4;3.7;;;;;;;7.65;82.95;;;;;
2023/11/01 18:18:07;;;;;;;7.4;3.7;;;;;;;7.66;82.29;;;;;
2023/11/01 18:29:07;;;;;;;6.6;3.5;;;;;;;7.66;82.24;;;;;
2023/11/01 18:39:08;;;;;;;6.6;3.5;;;;;;;7.58;81.85;;;;;
2023/11/01 18:50:07;;;;;;;6.6;3.5;;;;;;;7.49;82.82;;;;;
2023/11/01 19:00:08;;;;;;;6.3;3.1;;;;;;;7.33;82.09;;;;;
2023/11/01 19:10:07;;;;;;;6.3;3.1;;;;;;;7.16;82.65;;;;;
2023/11/01 19:20:07;;;;;;;6.3;3.1;;;;;;;7.08;82.41;;;;;
2023/11/01 19:31:07;;;;;;;9.5;4.8;;;;;;;6.86;82.82;;;;;
2023/11/01 19:41:08;;;;;;;9.5;4.8;;;;;;;6.7;83.29;;;;;
2023/11/01 19:52:07;;;;;;;10.5;5.8;;;;;;;6.54;83.77;;;;;
2023/11/01 20:02:07;;;;;;;10.5;5.8;;;;;;;6.43;84.31;;;;;
2023/11/01 20:12:08;;;;;;;10.5;5.8;;;;;;;7.08;86.94;;;;;
2023/11/01 20:22:07;;;;;;;9.1;3.8;;;;;;;7.64;86.44;;;;;
2023/11/01 20:33:08;;;;;;;9.1;3.8;;;;;;;7.94;84.88;;;;;
2023/11/01 20:44:07;;;;;;;9.1;3.8;;;;;;;8.11;83.54;;;;;
2023/11/01 20:55:07;;;;;;;6.6;3.3;;;;;;;7.95;82.07;;;;;
2023/11/01 21:05:07;;;;;;;6.6;3.3;;;;;;;7.52;82.05;;;;;
2023/11/01 21:16:07;;;;;;;6.6;3.3;;;;;;;7.3;81.89;;;;;
2023/11/01 21:26:07;;;;;;;19.1;12.8;;;;;;;7.06;82.2;;;;;
2023/11/01 21:37:07;;;;;;;19.1;12.8;;;;;;;6.9;83.81;;;;;
2023/11/01 21:47:07;;;;;;;19.1;12.8;;;;;;;6.77;84.2;;;;;
2023/11/01 21:58:07;;;;;;;17.6;8.9;;;;;;;6.64;83.94;;;;;
2023/11/01 22:08:07;;;;;;;17.6;8.9;;;;;;;6.48;84.72;;;;;
2023/11/01 22:18:07;;;;;;;17.6;8.9;;;;;;;6.35;84.85;;;;;
2023/11/01 22:29:07;;;;;;;18.2;10.5;;;;;;;6.2;85.07;;;;;
2023/11/01 22:39:07;;;;;;;18.2;10.5;;;;;;;6.04;85.22;;;;;
2023/11/01 22:49:07;;;;;;;18.2;10.5;;;;;;;5.94;85.12;;;;;
2023/11/01 23:00:09;;;;;;;13.6;7.5;;;;;;;5.78;85.38;;;;;
2023/11/01 23:10:07;;;;;;;13.6;7.5;;;;;;;5.58;86.82;;;;;
2023/11/01 23:21:09;;;;;;;10.8;5.9;;;;;;;5.54;86.12;;;;;
2023/11/01 23:31:09;;;;;;;10.8;5.9;;;;;;;5.42;86.64;;;;;
2023/11/01 23:42:07;;;;;;;10.8;5.9;;;;;;;5.38;87.63;;;;;
2023/11/01 23:53:08;;;;;;;7.1;3.8;;;;;;;5.3;87.56;;;;;
